createdAt,value
2022-09-25T00:02:04.533Z,98205.00
2022-09-25T00:04:52.132Z,98209.00
2022-09-25T00:07:39.720Z,98206.00
2022-09-25T00:10:29.206Z,98204.00
2022-09-25T00:13:19.100Z,98203.00
2022-09-25T00:16:10.711Z,98200.00
2022-09-25T00:19:18.681Z,98197.00
2022-09-25T00:22:06.235Z,98186.00
2022-09-25T00:24:54.266Z,98188.00
2022-09-25T00:27:43.648Z,98192.00
2022-09-25T00:30:31.176Z,98187.00
2022-09-25T00:33:18.641Z,98194.00
2022-09-25T00:36:10.529Z,98184.00
2022-09-25T00:38:58.846Z,98188.00
2022-09-25T00:41:46.375Z,98183.00
2022-09-25T00:45:18.536Z,98189.00
2022-09-25T00:48:15.385Z,98178.00
2022-09-25T00:51:04.825Z,98181.00
2022-09-25T00:53:52.450Z,98171.00
2022-09-25T00:56:45.003Z,98175.00
2022-09-25T00:59:40.117Z,98171.00
2022-09-25T01:02:54.337Z,98173.00
2022-09-25T01:05:45.440Z,98168.00
2022-09-25T01:08:35.401Z,98172.00
2022-09-25T01:11:22.931Z,98162.00
2022-09-25T01:14:12.372Z,98164.00
2022-09-25T01:17:24.876Z,98165.00
2022-09-25T01:20:31.860Z,98162.00
2022-09-25T01:23:46.951Z,98164.00
2022-09-25T01:26:45.965Z,98168.00
2022-09-25T01:30:05.801Z,98176.00
2022-09-25T01:33:03.602Z,98173.00
2022-09-25T01:36:10.476Z,98180.00
2022-09-25T01:39:15.015Z,98177.00
2022-09-25T01:42:21.900Z,98165.00
2022-09-25T01:45:20.721Z,98162.00
2022-09-25T01:48:12.275Z,98156.00
2022-09-25T01:51:16.640Z,98160.00
2022-09-25T01:54:12.404Z,98150.00
2022-09-25T01:57:22.312Z,98150.00
2022-09-25T02:00:16.630Z,98146.00
2022-09-25T02:03:47.622Z,98141.00
2022-09-25T02:06:39.026Z,98141.00
2022-09-25T02:09:40.471Z,98137.00
2022-09-25T02:12:37.322Z,98134.00
2022-09-25T02:15:41.207Z,98145.00
2022-09-25T02:18:49.099Z,98145.00
2022-09-25T02:22:11.644Z,98144.00
2022-09-25T02:25:25.620Z,98133.00
2022-09-25T02:28:13.226Z,98124.00
2022-09-25T02:31:07.548Z,98123.00
2022-09-25T02:33:56.119Z,98135.00
2022-09-25T02:36:45.018Z,98136.00
2022-09-25T02:39:33.406Z,98139.00
2022-09-25T02:42:49.886Z,98139.00
2022-09-25T02:46:17.041Z,98141.00
2022-09-25T02:49:49.478Z,98137.00
2022-09-25T02:53:04.460Z,98138.00
2022-09-25T02:56:25.180Z,98129.00
2022-09-25T02:59:38.691Z,98123.00
2022-09-25T03:02:29.916Z,98130.00
2022-09-25T03:05:17.856Z,98124.00
2022-09-25T03:08:25.676Z,98124.00
2022-09-25T03:11:19.997Z,98123.00
2022-09-25T03:14:08.136Z,98125.00
2022-09-25T03:17:00.313Z,98125.00
2022-09-25T03:19:47.877Z,98132.00
2022-09-25T03:22:35.743Z,98127.00
2022-09-25T03:25:23.225Z,98129.00
2022-09-25T03:28:13.021Z,98122.00
2022-09-25T03:31:07.723Z,98119.00
2022-09-25T03:33:56.070Z,98113.00
2022-09-25T03:36:47.779Z,98106.00
2022-09-25T03:39:35.328Z,98107.00
2022-09-25T03:42:22.855Z,98107.00
2022-09-25T03:45:11.644Z,98108.00
2022-09-25T03:47:59.116Z,98101.00
2022-09-25T03:50:46.687Z,98098.00
2022-09-25T03:53:36.095Z,98094.00
2022-09-25T03:56:29.906Z,98097.00
2022-09-25T03:59:17.644Z,98097.00
2022-09-25T04:02:05.236Z,98097.00
2022-09-25T04:04:55.070Z,98100.00
2022-09-25T04:07:42.741Z,98106.00
2022-09-25T04:10:30.811Z,98110.00
2022-09-25T04:13:19.765Z,98110.00
2022-09-25T04:16:08.520Z,98104.00
2022-09-25T04:18:56.246Z,98109.00
2022-09-25T04:21:43.795Z,98105.00
2022-09-25T04:24:49.508Z,98102.00
2022-09-25T04:27:37.189Z,98108.00
2022-09-25T04:30:29.991Z,98108.00
2022-09-25T04:33:37.695Z,98112.00
2022-09-25T04:36:25.363Z,98106.00
2022-09-25T04:39:20.122Z,98112.00
2022-09-25T04:42:07.965Z,98107.00
2022-09-25T04:44:57.237Z,98105.00
2022-09-25T04:47:45.077Z,98112.00
2022-09-25T04:50:34.222Z,98107.00
2022-09-25T04:53:23.103Z,98119.00
2022-09-25T04:56:15.829Z,98117.00
2022-09-25T04:59:04.265Z,98113.00
2022-09-25T05:01:51.819Z,98117.00
2022-09-25T05:04:39.596Z,98123.00
2022-09-25T05:07:27.196Z,98128.00
2022-09-25T05:10:14.822Z,98131.00
2022-09-25T05:13:05.334Z,98126.00
2022-09-25T05:15:55.269Z,98126.00
2022-09-25T05:18:42.870Z,98130.00
2022-09-25T05:21:30.382Z,98124.00
2022-09-25T05:24:17.951Z,98121.00
2022-09-25T05:27:05.494Z,98119.00
2022-09-25T05:29:53.059Z,98108.00
2022-09-25T05:32:40.606Z,98115.00
2022-09-25T05:35:32.176Z,98112.00
2022-09-25T05:38:19.712Z,98118.00
2022-09-25T05:41:11.931Z,98109.00
2022-09-25T05:43:59.441Z,98107.00
2022-09-25T05:46:47.076Z,98109.00
2022-09-25T05:49:34.787Z,98105.00
2022-09-25T05:52:22.300Z,98113.00
2022-09-25T05:55:11.102Z,98110.00
2022-09-25T05:58:03.933Z,98109.00
2022-09-25T06:00:52.256Z,98098.00
2022-09-25T06:03:39.967Z,98112.00
2022-09-25T06:06:27.775Z,98114.00
2022-09-25T06:09:15.340Z,98113.00
2022-09-25T06:12:04.090Z,98119.00
2022-09-25T06:14:52.750Z,98123.00
2022-09-25T06:17:40.256Z,98130.00
2022-09-25T06:20:27.950Z,98118.00
2022-09-25T06:23:16.552Z,98120.00
2022-09-25T06:26:07.152Z,98119.00
2022-09-25T06:28:58.571Z,98109.00
2022-09-25T06:31:48.735Z,98110.00
2022-09-25T06:34:36.250Z,98107.00
2022-09-25T06:37:23.861Z,98098.00
2022-09-25T06:40:11.605Z,98100.00
2022-09-25T06:43:04.815Z,98091.00
2022-09-25T06:45:52.423Z,98087.00
2022-09-25T06:48:40.633Z,98097.00
2022-09-25T06:51:32.504Z,98096.00
2022-09-25T06:54:20.078Z,98098.00
2022-09-25T06:57:10.179Z,98103.00
2022-09-25T06:59:57.737Z,98110.00
2022-09-25T07:03:04.153Z,98117.00
2022-09-25T07:05:51.873Z,98118.00
2022-09-25T07:08:40.203Z,98122.00
2022-09-25T07:11:28.708Z,98115.00
2022-09-25T07:14:16.185Z,98116.00
2022-09-25T07:17:03.821Z,98117.00
2022-09-25T07:19:51.361Z,98113.00
2022-09-25T07:22:40.509Z,98118.00
2022-09-25T07:25:28.000Z,98105.00
2022-09-25T07:28:19.177Z,98106.00
2022-09-25T07:31:17.278Z,98106.00
2022-09-25T07:34:12.857Z,98090.00
2022-09-25T07:37:00.721Z,98095.00
2022-09-25T07:39:48.321Z,98104.00
2022-09-25T07:42:35.781Z,98107.00
2022-09-25T07:45:23.380Z,98105.00
2022-09-25T07:48:10.940Z,98102.00
2022-09-25T07:51:11.055Z,98101.00
2022-09-25T07:53:58.831Z,98083.00
2022-09-25T07:56:46.364Z,98084.00
2022-09-25T07:59:34.003Z,98079.00
2022-09-25T08:02:21.669Z,98086.00
2022-09-25T08:05:11.847Z,98088.00
2022-09-25T08:07:59.377Z,98102.00
2022-09-25T08:10:47.000Z,98113.00
2022-09-25T08:13:37.744Z,98115.00
2022-09-25T08:16:25.558Z,98119.00
2022-09-25T08:19:14.235Z,98115.00
2022-09-25T08:22:01.859Z,98110.00
2022-09-25T08:24:49.700Z,98117.00
2022-09-25T08:27:41.114Z,98119.00
2022-09-25T08:30:29.532Z,98106.00
2022-09-25T08:33:17.392Z,98102.00
2022-09-25T08:36:06.390Z,98109.00
2022-09-25T08:38:56.506Z,98107.00
2022-09-25T08:41:55.359Z,98118.00
2022-09-25T08:45:21.143Z,98108.00
2022-09-25T08:48:42.701Z,98109.00
2022-09-25T08:51:36.890Z,98102.00
2022-09-25T08:54:34.075Z,98101.00
2022-09-25T08:57:45.342Z,98104.00
2022-09-25T09:00:33.027Z,98096.00
2022-09-25T09:03:25.850Z,98092.00
2022-09-25T09:06:17.585Z,98091.00
2022-09-25T09:09:22.422Z,98082.00
2022-09-25T09:12:16.850Z,98072.00
2022-09-25T09:15:26.295Z,98071.00
2022-09-25T09:18:28.725Z,98064.00
2022-09-25T09:21:43.354Z,98066.00
2022-09-25T09:25:09.686Z,98072.00
2022-09-25T09:28:40.886Z,98069.00
2022-09-25T09:31:47.044Z,98067.00
2022-09-25T09:35:09.026Z,98072.00
2022-09-25T09:38:34.806Z,98077.00
2022-09-25T09:41:58.575Z,98075.00
2022-09-25T09:45:11.140Z,98065.00
2022-09-25T09:48:10.676Z,98059.00
2022-09-25T09:51:11.680Z,98069.00
2022-09-25T09:54:21.528Z,98069.00
2022-09-25T09:57:21.883Z,98067.00
2022-09-25T10:00:22.916Z,98065.00
2022-09-25T10:03:26.126Z,98063.00
2022-09-25T10:06:22.415Z,98061.00
2022-09-25T10:09:16.824Z,98062.00
2022-09-25T10:12:15.401Z,98051.00
2022-09-25T10:15:18.203Z,98051.00
2022-09-25T10:18:08.097Z,98048.00
2022-09-25T10:21:21.621Z,98043.00
2022-09-25T10:24:09.237Z,98041.00
2022-09-25T10:26:57.976Z,98038.00
2022-09-25T10:29:45.581Z,98046.00
2022-09-25T10:32:47.183Z,98027.00
2022-09-25T10:35:37.768Z,98025.00
2022-09-25T10:38:37.738Z,98017.00
2022-09-25T10:41:26.414Z,98012.00
2022-09-25T10:44:43.807Z,98016.00
2022-09-25T10:47:50.739Z,98022.00
2022-09-25T10:50:38.474Z,98004.00
2022-09-25T10:53:31.850Z,98005.00
2022-09-25T10:56:29.602Z,98004.00
2022-09-25T10:59:21.058Z,98011.00
2022-09-25T11:02:38.199Z,98009.00
2022-09-25T11:05:38.518Z,98011.00
2022-09-25T11:08:32.768Z,97996.00
2022-09-25T11:11:27.666Z,97999.00
2022-09-25T11:14:46.446Z,98003.00
2022-09-25T11:17:45.037Z,97996.00
2022-09-25T11:20:33.412Z,98008.00
2022-09-25T11:23:34.420Z,97998.00
2022-09-25T11:26:32.867Z,97988.00
2022-09-25T11:30:06.743Z,97994.00
2022-09-25T11:33:21.266Z,97995.00
2022-09-25T11:36:37.016Z,97988.00
2022-09-25T11:40:06.260Z,97983.00
2022-09-25T11:43:06.836Z,97979.00
2022-09-25T11:46:02.743Z,97981.00
2022-09-25T11:49:18.370Z,97978.00
2022-09-25T11:53:17.677Z,97977.00
2022-09-25T11:56:47.781Z,97972.00
2022-09-25T11:59:52.895Z,97962.00
2022-09-25T12:03:10.995Z,97964.00
2022-09-25T12:06:28.406Z,97966.00
2022-09-25T12:09:30.835Z,97961.00
2022-09-25T12:12:39.681Z,97962.00
2022-09-25T12:15:54.535Z,97955.00
2022-09-25T12:19:27.079Z,97948.00
2022-09-25T12:22:41.683Z,97954.00
2022-09-25T12:26:01.306Z,97948.00
2022-09-25T12:29:16.081Z,97949.00
2022-09-25T12:32:32.361Z,97948.00
2022-09-25T12:35:52.080Z,97951.00
2022-09-25T12:38:55.354Z,97947.00
2022-09-25T12:42:12.226Z,97938.00
2022-09-25T12:45:16.405Z,97930.00
2022-09-25T12:48:37.472Z,97934.00
2022-09-25T12:52:03.386Z,97926.00
2022-09-25T12:54:59.786Z,97925.00
2022-09-25T12:58:12.092Z,97919.00
2022-09-25T13:01:17.430Z,97921.00
2022-09-25T13:04:23.284Z,97930.00
2022-09-25T13:07:28.583Z,97923.00
2022-09-25T13:10:47.076Z,97918.00
2022-09-25T13:13:46.940Z,97916.00
2022-09-25T13:16:35.630Z,97907.00
2022-09-25T13:19:35.415Z,97902.00
2022-09-25T13:22:26.146Z,97906.00
2022-09-25T13:25:16.751Z,97898.00
2022-09-25T13:28:14.777Z,97897.00
2022-09-25T13:31:09.444Z,97898.00
2022-09-25T13:34:16.983Z,97892.00
2022-09-25T13:37:10.576Z,97886.00
2022-09-25T13:40:19.634Z,97883.00
2022-09-25T13:43:24.556Z,97879.00
2022-09-25T13:46:18.308Z,97873.00
2022-09-25T13:49:35.827Z,97875.00
2022-09-25T13:53:09.846Z,97872.00
2022-09-25T13:55:57.506Z,97872.00
2022-09-25T13:59:15.131Z,97868.00
2022-09-25T14:02:42.385Z,97864.00
2022-09-25T14:05:36.997Z,97874.00
2022-09-25T14:08:28.085Z,97870.00
2022-09-25T14:11:23.531Z,97875.00
2022-09-25T14:14:39.276Z,97875.00
2022-09-25T14:17:32.351Z,97880.00
2022-09-25T14:20:46.187Z,97879.00
2022-09-25T14:23:34.087Z,97878.00
2022-09-25T14:26:27.896Z,97873.00
2022-09-25T14:29:31.860Z,97863.00
2022-09-25T14:33:01.985Z,97860.00
2022-09-25T14:36:27.995Z,97858.00
2022-09-25T14:39:50.836Z,97858.00
2022-09-25T14:43:09.606Z,97844.00
2022-09-25T14:46:18.699Z,97833.00
2022-09-25T14:49:33.819Z,97832.00
2022-09-25T14:52:28.361Z,97823.00
2022-09-25T14:55:21.210Z,97828.00
2022-09-25T14:58:15.943Z,97818.00
2022-09-25T15:01:28.257Z,97824.00
2022-09-25T15:04:34.170Z,97819.00
2022-09-25T15:07:28.126Z,97818.00
2022-09-25T15:10:39.330Z,97810.00
2022-09-25T15:13:33.642Z,97820.00
2022-09-25T15:16:46.437Z,97815.00
2022-09-25T15:19:45.697Z,97825.00
2022-09-25T15:22:39.529Z,97827.00
2022-09-25T15:25:51.646Z,97826.00
2022-09-25T15:28:41.310Z,97810.00
2022-09-25T15:31:37.705Z,97818.00
2022-09-25T15:34:30.808Z,97814.00
2022-09-25T15:37:31.121Z,97816.00
2022-09-25T15:40:30.591Z,97814.00
2022-09-25T15:43:20.585Z,97827.00
2022-09-25T15:46:08.118Z,97831.00
2022-09-25T15:48:59.563Z,97816.00
2022-09-25T15:52:04.995Z,97818.00
2022-09-25T15:54:52.826Z,97824.00
2022-09-25T15:57:41.480Z,97823.00
2022-09-25T16:00:47.841Z,97826.00
2022-09-25T16:04:04.011Z,97824.00
2022-09-25T16:06:51.743Z,97821.00
2022-09-25T16:09:39.279Z,97829.00
2022-09-25T16:12:30.221Z,97825.00
2022-09-25T16:15:27.683Z,97823.00
2022-09-25T16:18:26.771Z,97826.00
2022-09-25T16:21:14.676Z,97834.00
2022-09-25T16:24:13.084Z,97831.00
2022-09-25T16:27:04.422Z,97827.00
2022-09-25T16:29:53.207Z,97822.00
2022-09-25T16:32:49.076Z,97826.00
2022-09-25T16:36:08.101Z,97828.00
2022-09-25T16:39:09.665Z,97829.00
2022-09-25T16:42:00.129Z,97835.00
2022-09-25T16:44:49.459Z,97830.00
2022-09-25T16:47:37.040Z,97825.00
2022-09-25T16:50:28.610Z,97827.00
2022-09-25T16:53:16.110Z,97817.00
2022-09-25T16:56:03.816Z,97817.00
2022-09-25T16:58:52.089Z,97816.00
2022-09-25T17:01:39.848Z,97827.00
2022-09-25T17:04:31.087Z,97825.00
2022-09-25T17:07:18.756Z,97833.00
2022-09-25T17:10:12.065Z,97832.00
2022-09-25T17:13:02.531Z,97843.00
2022-09-25T17:15:50.661Z,97847.00
2022-09-25T17:18:38.560Z,97848.00
2022-09-25T17:21:26.262Z,97855.00
2022-09-25T17:24:14.485Z,97861.00
2022-09-25T17:27:02.231Z,97857.00
2022-09-25T17:29:50.055Z,97862.00
2022-09-25T17:32:37.600Z,97858.00
2022-09-25T17:35:49.254Z,97857.00
2022-09-25T17:38:37.135Z,97859.00
2022-09-25T17:41:36.391Z,97853.00
2022-09-25T17:44:23.996Z,97850.00
2022-09-25T17:47:12.641Z,97845.00
2022-09-25T17:50:00.200Z,97854.00
2022-09-25T17:52:47.875Z,97854.00
2022-09-25T17:55:35.331Z,97854.00
2022-09-25T17:58:24.547Z,97859.00
2022-09-25T18:01:23.293Z,97862.00
2022-09-25T18:04:25.836Z,97873.00
2022-09-25T18:07:14.525Z,97870.00
2022-09-25T18:10:02.180Z,97874.00
2022-09-25T18:12:49.700Z,97878.00
2022-09-25T18:15:46.740Z,97871.00
2022-09-25T18:18:53.641Z,97886.00
2022-09-25T18:21:59.525Z,97898.00
2022-09-25T18:24:56.668Z,97899.00
2022-09-25T18:27:45.056Z,97908.00
2022-09-25T18:30:33.246Z,97911.00
2022-09-25T18:33:23.156Z,97916.00
2022-09-25T18:36:10.840Z,97913.00
2022-09-25T18:38:58.310Z,97908.00
2022-09-25T18:41:47.890Z,97907.00
2022-09-25T18:44:42.228Z,97902.00
2022-09-25T18:47:31.076Z,97908.00
2022-09-25T18:50:20.898Z,97923.00
2022-09-25T18:53:08.975Z,97920.00
2022-09-25T18:55:59.981Z,97924.00
2022-09-25T18:58:47.966Z,97924.00
2022-09-25T19:01:37.199Z,97918.00
2022-09-25T19:04:26.220Z,97916.00
2022-09-25T19:07:15.054Z,97913.00
2022-09-25T19:10:07.967Z,97916.00
2022-09-25T19:12:55.485Z,97916.00
2022-09-25T19:15:43.525Z,97915.00
2022-09-25T19:18:31.172Z,97915.00
2022-09-25T19:21:23.120Z,97915.00
2022-09-25T19:24:11.255Z,97930.00
2022-09-25T19:26:58.745Z,97933.00
2022-09-25T19:29:47.562Z,97940.00
2022-09-25T19:32:35.041Z,97937.00
2022-09-25T19:35:22.519Z,97926.00
2022-09-25T19:38:12.693Z,97915.00
2022-09-25T19:41:01.476Z,97905.00
2022-09-25T19:43:49.696Z,97911.00
2022-09-25T19:46:37.609Z,97909.00
2022-09-25T19:49:25.246Z,97918.00
2022-09-25T19:52:13.191Z,97916.00
2022-09-25T19:55:01.065Z,97916.00
2022-09-25T19:57:49.160Z,97922.00
2022-09-25T20:00:42.160Z,97928.00
2022-09-25T20:03:31.285Z,97930.00
2022-09-25T20:06:19.385Z,97933.00
2022-09-25T20:09:10.029Z,97929.00
2022-09-25T20:11:57.661Z,97936.00
2022-09-25T20:14:45.230Z,97930.00
2022-09-25T20:17:32.720Z,97934.00
2022-09-25T20:20:20.275Z,97936.00
2022-09-25T20:23:08.811Z,97935.00
2022-09-25T20:26:18.935Z,97938.00
2022-09-25T20:29:14.129Z,97945.00
2022-09-25T20:32:02.081Z,97945.00
2022-09-25T20:34:49.631Z,97938.00
2022-09-25T20:37:37.245Z,97944.00
2022-09-25T20:40:24.856Z,97948.00
2022-09-25T20:43:12.455Z,97952.00
2022-09-25T20:46:08.371Z,97954.00
2022-09-25T20:48:58.595Z,97953.00
2022-09-25T20:51:46.537Z,97960.00
2022-09-25T20:54:34.717Z,97962.00
2022-09-25T20:57:22.510Z,97962.00
2022-09-25T21:00:18.301Z,97965.00
2022-09-25T21:03:06.886Z,97954.00
2022-09-25T21:05:54.401Z,97956.00
2022-09-25T21:08:42.486Z,97958.00
2022-09-25T21:11:32.355Z,97946.00
2022-09-25T21:14:27.401Z,97935.00
2022-09-25T21:17:15.031Z,97941.00
2022-09-25T21:20:02.627Z,97947.00
2022-09-25T21:22:52.461Z,97938.00
2022-09-25T21:25:39.930Z,97944.00
2022-09-25T21:28:30.971Z,97948.00
2022-09-25T21:31:23.608Z,97955.00
2022-09-25T21:34:14.441Z,97945.00
2022-09-25T21:37:01.910Z,97944.00
2022-09-25T21:39:49.482Z,97943.00
2022-09-25T21:42:36.999Z,97939.00
2022-09-25T21:45:24.627Z,97949.00
2022-09-25T21:48:12.141Z,97946.00
2022-09-25T21:50:59.642Z,97948.00
2022-09-25T21:53:47.862Z,97947.00
2022-09-25T21:56:36.171Z,97944.00
2022-09-25T21:59:23.760Z,97937.00
2022-09-25T22:02:11.382Z,97936.00
2022-09-25T22:04:58.852Z,97935.00
2022-09-25T22:07:47.262Z,97944.00
2022-09-25T22:10:34.775Z,97933.00
2022-09-25T22:13:22.368Z,97935.00
2022-09-25T22:16:14.379Z,97935.00
2022-09-25T22:19:19.231Z,97938.00
2022-09-25T22:22:06.806Z,97938.00
2022-09-25T22:24:54.386Z,97938.00
2022-09-25T22:27:41.893Z,97930.00
2022-09-25T22:30:29.981Z,97929.00
2022-09-25T22:33:17.593Z,97929.00
2022-09-25T22:36:07.755Z,97928.00
2022-09-25T22:38:56.441Z,97934.00
2022-09-25T22:41:44.968Z,97928.00
2022-09-25T22:44:32.511Z,97920.00
2022-09-25T22:47:20.020Z,97925.00
2022-09-25T22:50:08.388Z,97928.00
2022-09-25T22:52:58.282Z,97928.00
2022-09-25T22:55:47.846Z,97925.00
2022-09-25T22:58:35.381Z,97915.00
2022-09-25T23:01:43.383Z,97917.00
2022-09-25T23:04:30.941Z,97917.00
2022-09-25T23:07:18.496Z,97914.00
2022-09-25T23:10:07.770Z,97913.00
2022-09-25T23:12:55.256Z,97907.00
2022-09-25T23:15:42.748Z,97911.00
2022-09-25T23:18:37.201Z,97907.00
2022-09-25T23:21:26.843Z,97908.00
2022-09-25T23:24:18.454Z,97901.00
2022-09-25T23:27:05.950Z,97903.00
2022-09-25T23:29:53.443Z,97902.00
2022-09-25T23:32:40.982Z,97908.00
2022-09-25T23:35:28.650Z,97904.00
2022-09-25T23:38:16.105Z,97910.00
2022-09-25T23:41:20.765Z,97904.00
2022-09-25T23:44:11.235Z,97900.00
2022-09-25T23:46:58.871Z,97901.00
2022-09-25T23:49:46.371Z,97899.00
2022-09-25T23:52:34.170Z,97901.00
2022-09-25T23:55:21.657Z,97892.00
2022-09-25T23:58:12.840Z,97889.00
